Cedar Point, KS

12:05 AM CST on March 06, 2015 (GMT -0600)
Marion County Lake | Change Station
CLOSE
Current Station
Personal Weather Station
Location: Marion, KS
Elevation: 1362 ft
Nearby Weather Stations

Elev 1362 ft 38.32 °N, 96.99 °W | Updated 4 seconds ago

Clear
Clear
30.7 °F
Feels Like 25 °F
N
6.0
Wind Variable Wind from NW
Gusts 6.9 mph

Today
High -- | Low -- °F
--% Chance of Precip.
Yesterday
High -- | Low -- °F
Precip. -- in
6:51 AM 6:25 PM
Full, 100% visible
Pressure 30.45 in
Visibility 10.0 miles
Clouds Clear
Windchill 25 °F
Dew Point 15 °F
Humidity 51%
Rainfall in
Snow Depth Not available.
UV 0 out of 12
Pollen .50 out of 12
Air Quality Not available.
Flu Activity Not available.
METAR KEMP 060553Z AUTO 18011KT 10SM CLR M04/M08 A3040 RMK AO2 SLP312 T10391078 10006 21044 400441128 58011

More Conditions Fewer Conditions

Pressure 30.45 in
Visibility 10.0 miles
Clouds Clear
Windchill 25 °F
Dew Point 15 °F
Humidity 51%
Rainfall in
Snow Depth Not available.
UV 0 out of 12
Pollen .50 out of 12
Air Quality Not available.
Flu Activity Not available.
METAR KEMP 060553Z AUTO 18011KT 10SM CLR M04/M08 A3040 RMK AO2 SLP312 T10391078 10006 21044 400441128 58011

More Conditions Fewer Conditions

10-Day Weather Forecast

Almanac

Astronomy

Mar. 06, 2015 Rise Set
Actual Time
Civil Twilight
Nautical Twilight
Astronomical Twilight
Moon
Length of Visible Light
Length of Day
Tomorrow will be .
, % of the Moon is Illuminated

Today's Extremes

State Highs State Lows

Community

WunderPhotos

Upload Photos

1,803,194 photos uploaded!

WunderBlogs® & News

Nearby

Air Quality

  Air Quality AQ Index Pollutant
Not available.

Snow Depth

Station Depth Elevation

Earthquake Activity

City Distance Mag. Time & Date
Minimum magnitude displayed is 2.5.

Coastal Water Temperatures

Place Temperature

Nearby Weather Stations